Time;durP1;ratioP1;P1;durP2;ratioP2;P2;SDS_P1;SDS_P2;PMS_P1;PMS_P2;Temp;Humidity;BMP_temperature;BMP_pressure;BME280_temperature;BME280_humidity;BME280_pressure;Samples;Min_cycle;Max_cycle;Signal;HPM_P1;HPM_P2
2022/04/21 00:01:34;;;;;;;1.10;0.98;;;;;;;19.07;43.22;101523.75;5148235;27;20031;-48
2022/04/21 00:04:00;;;;;;;1.10;1.00;;;;;;;19.07;43.45;101534.53;5147971;27;20050;-51
2022/04/21 00:06:25;;;;;;;0.80;0.80;;;;;;;18.97;43.31;101514.91;5137518;27;20027;-52
2022/04/21 00:08:50;;;;;;;1.30;1.15;;;;;;;19.08;43.07;101527.31;5129248;27;20027;-51
2022/04/21 00:11:16;;;;;;;0.80;0.80;;;;;;;19.07;43.03;101518.38;5147788;27;20023;-46
2022/04/21 00:13:42;;;;;;;1.10;1.00;;;;;;;19.07;43.07;101521.06;5147040;27;20609;-51
2022/04/21 00:16:07;;;;;;;0.70;0.70;;;;;;;19.03;43.30;101514.31;5108592;28;20475;-48
2022/04/21 00:18:32;;;;;;;1.00;0.70;;;;;;;19.05;43.00;101508.75;5127212;28;20106;-48
2022/04/21 00:21:00;;;;;;;0.80;0.80;;;;;;;19.05;43.24;101509.59;5091900;28;20031;-50
2022/04/21 00:23:26;;;;;;;0.90;0.80;;;;;;;19.02;43.25;101501.81;5103095;27;20027;-52
2022/04/21 00:25:51;;;;;;;1.10;0.85;;;;;;;19.03;42.91;101505.34;5128842;27;20038;-52
2022/04/21 00:28:16;;;;;;;0.70;0.68;;;;;;;19.04;43.01;101510.63;5146386;27;20051;-50
2022/04/21 00:30:41;;;;;;;0.70;0.68;;;;;;;19.03;43.09;101506.22;5129212;27;20036;-53
2022/04/21 00:33:07;;;;;;;0.80;0.80;;;;;;;18.94;42.94;101485.56;5147112;27;20038;-52
2022/04/21 00:35:32;;;;;;;0.70;0.70;;;;;;;19.03;43.17;101502.66;5128810;27;20126;-51
2022/04/21 00:37:58;;;;;;;0.90;0.77;;;;;;;18.92;42.82;101474.13;5128341;27;20037;-52
2022/04/21 00:40:26;;;;;;;1.05;0.90;;;;;;;19.03;42.84;101498.16;5134074;27;20691;-52
2022/04/21 00:42:52;;;;;;;1.30;0.98;;;;;;;19.03;43.10;101491.88;5110432;27;20019;-48
2022/04/21 00:45:17;;;;;;;1.00;0.90;;;;;;;19.03;42.98;101498.16;5146800;27;20033;-51
2022/04/21 00:47:44;;;;;;;0.80;0.80;;;;;;;19.01;42.86;101489.34;5146783;27;20034;-51
2022/04/21 00:50:15;;;;;;;1.38;1.10;;;;;;;19.02;42.86;101487.50;5128796;27;20083;-50
2022/04/21 00:52:40;;;;;;;0.80;0.80;;;;;;;19.02;42.65;101493.72;5128117;27;20060;-50
2022/04/21 00:55:07;;;;;;;0.82;0.80;;;;;;;19.02;42.76;101487.50;5128416;27;20087;-47
2022/04/21 00:57:33;;;;;;;0.80;0.80;;;;;;;19.02;42.84;101491.03;5128356;27;20045;-51
2022/04/21 00:59:59;;;;;;;1.30;0.90;;;;;;;19.01;42.60;101483.97;5127767;27;20023;-48
2022/04/21 01:05:09;;;;;;;0.98;0.90;;;;;;;19.00;42.77;101479.59;5131009;27;20052;-52
2022/04/21 01:07:35;;;;;;;0.90;0.70;;;;;;;18.82;42.67;101454.47;5128155;27;20192;-52
2022/04/21 01:10:00;;;;;;;0.75;0.75;;;;;;;19.00;42.78;101486.81;5145195;27;20385;-52
2022/04/21 01:12:25;;;;;;;0.63;0.63;;;;;;;19.00;42.65;101481.44;5145986;27;20035;-50
2022/04/21 01:14:51;;;;;;;1.20;0.82;;;;;;;18.98;42.46;101487.81;5127471;27;20026;-51
2022/04/21 01:17:16;;;;;;;1.50;1.10;;;;;;;18.97;42.61;101486.13;5146587;27;20027;-52
2022/04/21 01:19:41;;;;;;;1.08;0.90;;;;;;;18.97;42.72;101483.41;5146499;27;20031;-52
2022/04/21 01:22:10;;;;;;;1.13;1.00;;;;;;;18.96;42.33;101479.03;5127777;27;20015;-51
2022/04/21 01:24:35;;;;;;;1.17;1.08;;;;;;;18.97;42.33;101478.03;5146115;27;20031;-51
2022/04/21 01:27:00;;;;;;;0.85;0.80;;;;;;;18.97;42.79;101472.66;5146012;27;20034;-49
2022/04/21 01:29:27;;;;;;;0.88;0.80;;;;;;;18.97;42.23;101475.34;5145530;27;20027;-50
2022/04/21 01:31:53;;;;;;;1.20;1.08;;;;;;;18.96;42.30;101478.19;5127861;27;20415;-50
2022/04/21 01:34:18;;;;;;;1.65;1.10;;;;;;;18.96;42.51;101478.19;5146151;27;20037;-52
2022/04/21 01:42:15;;;;;;;1.02;0.90;;;;;;;18.94;42.45;101472.09;5129134;27;20095;-50
2022/04/21 01:44:41;;;;;;;0.80;0.80;;;;;;;18.94;42.39;101469.41;5123658;27;20041;-51
2022/04/21 01:47:06;;;;;;;1.23;0.80;;;;;;;18.82;42.49;101449.09;5144740;27;20102;-51
2022/04/21 01:49:32;;;;;;;1.20;0.80;;;;;;;18.93;42.12;101456.94;5144552;27;20026;-50
2022/04/21 01:51:57;;;;;;;1.27;0.82;;;;;;;18.82;42.15;101443.69;5144850;27;20098;-51
2022/04/21 01:54:22;;;;;;;0.70;0.70;;;;;;;18.92;42.21;101463.34;5127139;27;20026;-47
2022/04/21 01:56:47;;;;;;;0.80;0.80;;;;;;;18.92;42.36;101460.66;5143549;27;20027;-52
2022/04/21 01:59:13;;;;;;;1.27;0.88;;;;;;;18.92;42.19;101460.66;5144012;27;20057;-50
2022/04/21 02:01:38;;;;;;;1.15;0.95;;;;;;;18.82;42.38;101441.88;5145655;27;20027;-52
2022/04/21 02:04:03;;;;;;;0.93;0.80;;;;;;;18.82;42.13;101447.28;5127065;27;20091;-51
2022/04/21 02:06:29;;;;;;;0.85;0.80;;;;;;;18.80;42.46;101441.19;5127073;27;20171;-52
2022/04/21 02:08:54;;;;;;;0.88;0.82;;;;;;;18.91;42.12;101456.28;5109789;27;20030;-52
2022/04/21 02:11:19;;;;;;;0.90;0.85;;;;;;;18.81;42.07;101440.16;5145018;27;20035;-49
2022/04/21 02:13:44;;;;;;;0.73;0.73;;;;;;;18.90;42.19;101454.56;5144527;27;20030;-52
2022/04/21 02:16:10;;;;;;;1.27;0.98;;;;;;;18.79;42.37;101439.50;5127072;27;20380;-51
2022/04/21 02:18:35;;;;;;;1.10;0.90;;;;;;;18.80;42.33;101440.34;5127102;27;20023;-50
2022/04/21 02:21:00;;;;;;;1.10;1.00;;;;;;;18.80;41.88;101438.47;5145148;27;20015;-51
2022/04/21 02:23:25;;;;;;;0.70;0.70;;;;;;;18.87;42.45;101449.50;5126635;27;20058;-45
2022/04/21 02:25:51;;;;;;;0.90;0.90;;;;;;;18.85;42.14;101441.53;5109323;27;20072;-50
2022/04/21 02:28:16;;;;;;;0.80;0.80;;;;;;;18.87;42.27;101447.66;5125707;27;20019;-50
2022/04/21 02:30:41;;;;;;;1.08;0.80;;;;;;;18.87;42.14;101449.50;5145373;27;20031;-49
2022/04/21 02:33:07;;;;;;;1.02;0.88;;;;;;;18.85;42.44;101446.09;5145025;27;20102;-50
2022/04/21 02:35:32;;;;;;;0.73;0.73;;;;;;;18.84;42.10;101437.16;5144875;27;20023;-48
2022/04/21 02:37:58;;;;;;;1.13;0.70;;;;;;;18.85;42.13;101438.84;5144782;27;20027;-53
2022/04/21 02:40:23;;;;;;;0.98;0.90;;;;;;;18.85;42.20;101446.09;5122843;28;20067;-51
2022/04/21 02:42:48;;;;;;;1.10;1.00;;;;;;;18.84;41.96;101444.41;5105383;28;20083;-49
2022/04/21 02:45:14;;;;;;;0.70;0.70;;;;;;;18.84;41.92;101447.94;5124200;28;20032;-50
2022/04/21 02:47:41;;;;;;;0.85;0.85;;;;;;;18.83;41.90;101435.47;5124397;28;20028;-49
2022/04/21 02:50:07;;;;;;;0.85;0.75;;;;;;;18.75;41.91;101421.09;5105869;28;20085;-50
2022/04/21 02:52:35;;;;;;;0.80;0.80;;;;;;;18.76;41.86;101425.47;5123719;28;20039;-51
2022/04/21 02:57:44;;;;;;;0.90;0.80;;;;;;;18.82;42.00;101439.19;5122320;28;20042;-49
2022/04/21 03:00:10;;;;;;;0.80;0.70;;;;;;;18.71;42.20;101429.47;5105485;28;20388;-50
2022/04/21 03:02:35;;;;;;;0.85;0.80;;;;;;;18.80;42.19;101435.78;5105687;28;20046;-50
2022/04/21 03:05:00;;;;;;;0.70;0.70;;;;;;;18.70;42.04;101417.03;5124270;28;20055;-47
2022/04/21 03:07:25;;;;;;;0.73;0.73;;;;;;;18.70;42.02;101418.88;5122511;28;20038;-51
2022/04/21 03:09:53;;;;;;;1.15;0.77;;;;;;;18.80;42.11;101429.56;5105303;28;20035;-49
2022/04/21 03:12:18;;;;;;;0.70;0.70;;;;;;;18.79;41.65;101430.56;5121964;28;20028;-48
2022/04/21 03:14:44;;;;;;;1.00;0.80;;;;;;;18.78;42.04;101428.88;5123752;28;20038;-49
2022/04/21 03:17:09;;;;;;;0.98;0.80;;;;;;;18.78;41.79;101439.66;5122708;28;20053;-46
2022/04/21 03:19:36;;;;;;;0.95;0.85;;;;;;;18.78;42.07;101437.81;5122881;28;20489;-48
2022/04/21 03:24:46;;;;;;;0.80;0.80;;;;;;;18.76;41.81;101431.72;5122851;28;20035;-46
2022/04/21 03:27:12;;;;;;;0.70;0.70;;;;;;;18.65;41.85;101423.84;5121622;28;20032;-45
2022/04/21 03:29:37;;;;;;;1.08;0.93;;;;;;;18.76;41.76;101442.47;5123629;28;20031;-50
2022/04/21 03:32:09;;;;;;;0.80;0.80;;;;;;;18.64;41.86;101422.97;5123811;28;20034;-48
2022/04/21 03:34:35;;;;;;;0.85;0.73;;;;;;;18.75;41.69;101445.34;5127923;28;20625;-49
2022/04/21 03:37:01;;;;;;;0.93;0.80;;;;;;;18.64;41.95;101428.38;5126429;28;20535;-48
2022/04/21 03:39:26;;;;;;;0.95;0.80;;;;;;;18.73;41.85;101443.66;5126594;28;20059;-45
2022/04/21 03:41:53;;;;;;;1.35;0.70;;;;;;;18.73;41.64;101448.16;5108879;28;20020;-46
2022/04/21 03:44:20;;;;;;;0.98;0.82;;;;;;;18.74;41.61;101449.88;5127250;28;20055;-46
2022/04/21 03:46:45;;;;;;;1.00;0.95;;;;;;;18.62;41.85;101426.84;5126517;28;20361;-48
2022/04/21 03:49:11;;;;;;;1.00;0.90;;;;;;;18.72;41.47;101443.78;5127904;28;20539;-45
2022/04/21 03:51:36;;;;;;;0.70;0.70;;;;;;;18.70;41.90;101446.66;5127454;28;20480;-48
2022/04/21 03:54:01;;;;;;;1.00;0.90;;;;;;;18.72;41.43;101443.78;5127752;28;20785;-50
2022/04/21 03:56:27;;;;;;;0.90;0.70;;;;;;;18.69;41.61;101444.06;5108310;28;20096;-48
2022/04/21 03:58:53;;;;;;;1.05;0.80;;;;;;;18.70;41.51;101440.41;5125939;28;20064;-50
2022/04/21 04:01:19;;;;;;;0.88;0.70;;;;;;;18.59;41.72;101425.28;5127694;28;20016;-49
2022/04/21 04:03:44;;;;;;;1.05;0.80;;;;;;;18.68;41.59;101440.53;5127353;28;20024;-48
2022/04/21 04:11:38;;;;;;;0.85;0.85;;;;;;;18.67;41.39;101441.53;5126431;28;20031;-48
2022/04/21 04:14:06;;;;;;;0.70;0.70;;;;;;;18.67;41.65;101443.38;5126568;28;20032;-48
2022/04/21 04:16:34;;;;;;;1.02;0.93;;;;;;;18.66;41.66;101452.47;5127374;28;20556;-47
2022/04/21 04:19:00;;;;;;;0.70;0.70;;;;;;;18.60;41.57;101445.81;5127293;28;20050;-46
2022/04/21 04:21:25;;;;;;;0.98;0.90;;;;;;;18.55;41.61;101437.38;5108611;28;20033;-49
2022/04/21 04:23:50;;;;;;;1.23;1.13;;;;;;;18.54;41.45;101424.06;5125883;28;20051;-50
2022/04/21 04:26:15;;;;;;;1.00;0.90;;;;;;;18.63;41.44;101450.06;5126706;28;20038;-48
2022/04/21 04:28:41;;;;;;;0.95;0.85;;;;;;;18.54;41.63;101438.38;5107750;28;20047;-51
2022/04/21 04:31:06;;;;;;;0.80;0.80;;;;;;;18.54;41.66;101433.00;5125599;28;20023;-46
2022/04/21 04:33:31;;;;;;;1.13;0.82;;;;;;;18.62;41.44;101460.00;5125603;28;20028;-47
2022/04/21 04:35:56;;;;;;;0.82;0.82;;;;;;;18.62;41.44;101451.09;5127019;28;20028;-46
2022/04/21 04:38:21;;;;;;;0.85;0.80;;;;;;;18.61;41.57;101458.31;5126559;28;20035;-46
2022/04/21 04:40:47;;;;;;;0.95;0.90;;;;;;;18.61;41.61;101452.09;5131882;27;20039;-49
2022/04/21 04:43:12;;;;;;;1.17;0.80;;;;;;;18.60;41.34;101456.59;5131234;27;20055;-47
2022/04/21 04:48:21;;;;;;;1.05;0.95;;;;;;;18.46;41.24;101438.28;5147041;27;20087;-48
2022/04/21 04:50:46;;;;;;;0.98;0.90;;;;;;;18.60;41.27;101455.75;5147065;27;20027;-46
2022/04/21 04:53:12;;;;;;;0.80;0.80;;;;;;;18.59;41.50;101462.16;5111178;27;20023;-46
2022/04/21 04:55:37;;;;;;;1.00;0.80;;;;;;;18.47;41.51;101439.97;5128385;27;20027;-47
2022/04/21 04:58:02;;;;;;;0.90;0.90;;;;;;;18.56;41.48;101457.06;5146241;27;20031;-48
2022/04/21 05:00:29;;;;;;;0.95;0.90;;;;;;;18.57;41.46;101461.47;5146638;27;20031;-48
2022/04/21 05:02:54;;;;;;;1.00;0.82;;;;;;;18.56;41.34;101465.13;5111472;27;20019;-47
2022/04/21 05:05:20;;;;;;;0.75;0.75;;;;;;;18.56;41.27;101459.75;5125674;27;20034;-48
2022/04/21 05:07:45;;;;;;;0.70;0.70;;;;;;;18.54;41.47;101462.63;5125746;28;20035;-48
2022/04/21 05:10:10;;;;;;;1.10;1.00;;;;;;;18.54;41.24;101462.63;5126134;28;20066;-47
2022/04/21 05:12:35;;;;;;;0.73;0.70;;;;;;;18.54;41.46;101467.16;5106792;28;20027;-48
2022/04/21 05:15:01;;;;;;;0.70;0.70;;;;;;;18.54;41.33;101459.91;5125953;28;20035;-49
2022/04/21 05:17:27;;;;;;;0.90;0.90;;;;;;;18.54;41.34;101461.78;5131160;27;20059;-47
2022/04/21 05:19:53;;;;;;;0.70;0.70;;;;;;;18.54;41.27;101459.06;5107813;28;20027;-48
2022/04/21 05:22:18;;;;;;;0.70;0.70;;;;;;;18.42;41.32;101437.75;5125821;28;20038;-48
2022/04/21 05:24:51;;;;;;;1.20;0.90;;;;;;;18.54;41.58;101459.91;5107318;28;20492;-47
2022/04/21 05:27:16;;;;;;;1.42;0.82;;;;;;;18.43;41.57;101449.34;5125267;27;20077;-47
2022/04/21 05:32:28;;;;;;;0.85;0.80;;;;;;;18.52;41.44;101467.31;5124528;27;20038;-52
2022/04/21 05:34:54;;;;;;;0.80;0.80;;;;;;;18.52;41.69;101474.53;5121187;28;20574;-51
2022/04/21 05:37:19;;;;;;;0.90;0.85;;;;;;;18.52;41.31;101474.53;5106783;28;20027;-51
2022/04/21 05:39:45;;;;;;;1.17;0.80;;;;;;;18.51;41.50;101479.06;5091673;27;20051;-52
2022/04/21 05:42:16;;;;;;;0.80;0.80;;;;;;;18.52;41.51;101474.53;5132608;27;20043;-49
2022/04/21 05:44:42;;;;;;;1.23;0.77;;;;;;;18.40;41.69;101461.31;5145320;27;20030;-47
2022/04/21 05:47:09;;;;;;;0.80;0.80;;;;;;;18.50;41.55;101477.38;5126179;27;20023;-48
2022/04/21 05:49:34;;;;;;;1.10;0.90;;;;;;;18.51;41.77;101470.16;5137002;27;20036;-48
2022/04/21 05:52:00;;;;;;;1.23;1.00;;;;;;;18.48;41.57;101471.31;5142238;27;20030;-49
2022/04/21 05:54:26;;;;;;;0.80;0.80;;;;;;;18.51;41.89;101478.22;5145982;27;20031;-49
2022/04/21 05:56:51;;;;;;;0.70;0.70;;;;;;;18.51;41.94;101470.16;5131788;27;20027;-49
2022/04/21 05:59:17;;;;;;;0.80;0.80;;;;;;;18.50;41.70;101474.69;5095974;27;20408;-47
2022/04/21 06:01:42;;;;;;;1.00;0.80;;;;;;;18.52;41.75;101477.22;5140890;27;20023;-49
2022/04/21 06:04:07;;;;;;;1.00;0.90;;;;;;;18.51;42.07;101460.22;5126149;27;20027;-49
2022/04/21 06:06:32;;;;;;;1.20;1.10;;;;;;;18.53;42.02;101468.16;5125726;27;20027;-48
2022/04/21 06:08:58;;;;;;;0.95;0.90;;;;;;;18.51;42.14;101462.91;5135700;27;20097;-48
2022/04/21 06:11:24;;;;;;;0.70;0.70;;;;;;;18.49;41.91;101455.00;5124360;27;20028;-46
2022/04/21 06:13:50;;;;;;;0.90;0.90;;;;;;;18.42;42.06;101453.06;5121315;27;20031;-49
2022/04/21 06:16:15;;;;;;;2.15;0.90;;;;;;;18.53;42.20;101460.09;5118896;27;20044;-48
2022/04/21 06:18:40;;;;;;;0.90;0.90;;;;;;;18.54;42.45;101456.38;5138378;27;20078;-47
2022/04/21 06:21:09;;;;;;;1.25;1.02;;;;;;;18.45;42.47;101439.31;5124225;27;20023;-47
2022/04/21 06:23:35;;;;;;;0.93;0.80;;;;;;;18.54;42.27;101453.69;5120787;27;20033;-46
2022/04/21 06:26:01;;;;;;;1.15;1.00;;;;;;;18.45;42.28;101437.44;5139787;27;20079;-48
2022/04/21 06:28:27;;;;;;;1.55;1.15;;;;;;;18.57;42.64;101445.31;5123310;27;20015;-52
2022/04/21 06:30:52;;;;;;;1.00;0.80;;;;;;;18.57;42.58;101462.31;5134547;27;20087;-48
2022/04/21 06:33:18;;;;;;;0.90;0.82;;;;;;;18.57;42.50;101445.31;5120287;27;20042;-52
2022/04/21 06:35:44;;;;;;;1.27;1.13;;;;;;;18.59;42.44;101454.06;5118177;27;20038;-49
2022/04/21 06:38:10;;;;;;;0.93;0.90;;;;;;;18.61;42.67;101454.78;5140417;27;20101;-52
2022/04/21 06:40:36;;;;;;;1.05;0.95;;;;;;;18.61;42.66;101457.47;5120838;27;20128;-48
2022/04/21 06:43:03;;;;;;;1.15;1.05;;;;;;;18.62;42.65;101451.94;5140783;27;20044;-54
2022/04/21 06:48:13;;;;;;;1.13;1.00;;;;;;;18.62;42.36;101449.22;5132931;27;20042;-47
2022/04/21 06:50:39;;;;;;;1.02;0.93;;;;;;;18.55;42.37;101434.69;5103910;27;20031;-50
2022/04/21 06:53:06;;;;;;;1.02;0.93;;;;;;;18.67;42.40;101456.84;5121490;27;20045;-51
2022/04/21 06:55:32;;;;;;;0.80;0.80;;;;;;;18.67;42.36;101455.00;5121673;27;20298;-56
2022/04/21 06:57:57;;;;;;;1.38;1.10;;;;;;;18.68;42.35;101455.84;5105974;28;20624;-53
2022/04/21 07:00:25;;;;;;;1.00;0.90;;;;;;;18.68;42.33;101456.69;5118433;27;20031;-57
2022/04/21 07:02:55;;;;;;;1.65;1.13;;;;;;;18.70;42.57;101451.19;5123692;27;20039;-58
2022/04/21 07:05:22;;;;;;;0.80;0.80;;;;;;;18.70;42.60;101456.59;5141660;27;20019;-56
2022/04/21 07:07:47;;;;;;;1.50;1.00;;;;;;;18.62;42.38;101435.75;5104673;27;20027;-52
2022/04/21 07:10:13;;;;;;;1.02;0.80;;;;;;;18.64;42.47;101444.53;5123092;27;20300;-49
2022/04/21 07:12:38;;;;;;;1.45;1.02;;;;;;;18.73;42.55;101453.56;5105741;28;20034;-54
2022/04/21 07:15:06;;;;;;;1.05;0.93;;;;;;;18.76;42.35;101455.09;5121998;28;20020;-52
2022/04/21 07:17:32;;;;;;;1.02;0.93;;;;;;;18.76;42.41;101452.41;5122511;28;20069;-51
2022/04/21 07:19:58;;;;;;;1.58;0.90;;;;;;;18.76;42.66;101461.34;5116644;28;20035;-51
2022/04/21 07:22:25;;;;;;;1.10;1.00;;;;;;;18.77;42.22;101463.03;5119918;28;20015;-50
2022/04/21 07:24:51;;;;;;;1.20;1.10;;;;;;;18.67;42.20;101449.59;5105712;28;20023;-54
2022/04/21 07:27:16;;;;;;;1.25;1.08;;;;;;;18.66;42.47;101447.09;5119326;28;20019;-55
2022/04/21 07:29:42;;;;;;;1.33;1.08;;;;;;;18.72;42.27;101454.56;5141565;28;20062;-50
2022/04/21 07:32:08;;;;;;;1.00;0.90;;;;;;;18.67;42.25;101446.91;5123377;28;20027;-54
2022/04/21 07:34:34;;;;;;;1.83;1.52;;;;;;;18.80;42.06;101465.41;5141569;28;20049;-55
2022/04/21 07:36:59;;;;;;;1.95;1.00;;;;;;;18.81;41.64;101464.41;5140921;28;20092;-50
2022/04/21 07:39:24;;;;;;;0.90;0.80;;;;;;;18.71;41.19;101445.63;5141875;28;20047;-46
2022/04/21 07:41:50;;;;;;;1.17;1.02;;;;;;;18.83;41.05;101462.44;5122117;28;20038;-54
2022/04/21 07:44:16;;;;;;;1.30;1.20;;;;;;;18.75;40.92;101442.66;5137152;28;20031;-55
2022/04/21 07:46:41;;;;;;;1.67;1.10;;;;;;;18.87;40.81;101458.41;5140080;28;20030;-56
2022/04/21 07:51:50;;;;;;;1.90;1.38;;;;;;;18.86;40.67;101454.03;5122839;28;20060;-51
2022/04/21 07:54:15;;;;;;;1.13;1.02;;;;;;;18.86;40.86;101455.88;5123403;28;20035;-57
2022/04/21 07:56:41;;;;;;;1.50;0.95;;;;;;;18.84;41.28;101452.50;5105279;28;20027;-53
2022/04/21 07:59:06;;;;;;;1.38;1.10;;;;;;;18.82;41.35;101455.34;5123044;28;20019;-50
2022/04/21 08:01:31;;;;;;;1.55;1.00;;;;;;;18.81;41.25;101459.03;5141554;28;20034;-47
2022/04/21 08:04:02;;;;;;;1.40;1.20;;;;;;;18.79;41.61;101452.97;5122498;28;20080;-48
2022/04/21 08:06:28;;;;;;;0.90;0.90;;;;;;;18.80;41.46;101453.81;5123343;28;20073;-48
2022/04/21 08:08:53;;;;;;;1.85;1.05;;;;;;;18.81;41.52;101464.41;5123096;28;20460;-47
2022/04/21 08:11:18;;;;;;;1.58;1.30;;;;;;;18.83;41.06;101458.88;5104934;28;20034;-47
2022/04/21 08:13:43;;;;;;;2.05;1.40;;;;;;;18.86;40.82;101455.88;5139774;27;20016;-48
2022/04/21 08:16:09;;;;;;;2.30;1.58;;;;;;;18.88;40.65;101464.66;5141261;28;20035;-47
2022/04/21 08:18:34;;;;;;;4.13;2.25;;;;;;;18.80;40.68;101451.94;5123033;27;20098;-47
2022/04/21 08:20:59;;;;;;;3.45;2.53;;;;;;;18.91;40.59;101456.28;5143746;27;20037;-50
2022/04/21 08:23:25;;;;;;;6.43;3.17;;;;;;;18.93;40.27;101462.34;5144888;27;20050;-47
2022/04/21 08:34:24;;;;;;;9.35;5.03;;;;;;;18.89;40.08;101447.47;5063761;28;20082;-49
2022/04/21 08:36:49;;;;;;;8.65;4.22;;;;;;;18.97;39.86;101461.03;5069022;28;20041;-52
2022/04/21 08:39:15;;;;;;;8.38;4.22;;;;;;;18.89;40.09;101451.00;5064891;28;20098;-52
2022/04/21 08:41:42;;;;;;;7.07;4.22;;;;;;;19.02;40.14;101468.63;5060959;28;20079;-54
2022/04/21 08:44:07;;;;;;;6.40;3.70;;;;;;;19.01;40.26;101472.34;5068372;28;20036;-54
2022/04/21 08:46:34;;;;;;;5.40;3.50;;;;;;;18.88;40.30;101448.50;5066713;28;20094;-54
2022/04/21 08:49:00;;;;;;;5.25;3.20;;;;;;;18.86;40.16;101456.75;5071477;28;20036;-51
2022/04/21 08:51:25;;;;;;;5.78;2.92;;;;;;;18.96;40.80;101470.97;5065511;28;20032;-53
2022/04/21 08:53:50;;;;;;;5.15;3.25;;;;;;;18.92;40.65;101469.56;5068592;28;20506;-57
2022/04/21 08:56:16;;;;;;;6.30;3.28;;;;;;;18.85;40.92;101448.78;5066219;28;20045;-49
2022/04/21 08:58:41;;;;;;;5.82;2.83;;;;;;;18.94;40.70;101464.00;5068021;28;20037;-49
2022/04/21 09:01:07;;;;;;;3.50;2.38;;;;;;;18.84;40.72;101453.34;5064024;28;20029;-50
2022/04/21 09:03:35;;;;;;;3.65;2.50;;;;;;;18.83;41.02;101448.97;5104961;27;20054;-55
2022/04/21 09:06:00;;;;;;;4.88;2.95;;;;;;;18.94;41.13;101450.53;5125689;27;20015;-52
2022/04/21 09:08:29;;;;;;;4.68;2.30;;;;;;;18.93;40.99;101457.78;5144286;27;20031;-54
2022/04/21 09:11:11;;;;;;;4.32;2.63;;;;;;;18.93;41.23;101455.09;5126295;27;20118;-54
2022/04/21 09:13:41;;;;;;;4.68;2.05;;;;;;;18.91;41.71;101451.72;5125746;27;20038;-55
2022/04/21 09:16:09;;;;;;;3.67;1.92;;;;;;;18.92;41.67;101448.00;5125016;27;20035;-54
2022/04/21 09:18:45;;;;;;;4.50;2.45;;;;;;;18.92;41.73;101450.72;5126060;27;20035;-51
2022/04/21 09:21:15;;;;;;;2.15;1.60;;;;;;;18.86;41.44;101426.22;5143104;27;20019;-49
2022/04/21 09:23:41;;;;;;;2.83;1.92;;;;;;;18.88;41.54;101435.00;5143104;27;20079;-52
2022/04/21 09:26:12;;;;;;;2.35;1.50;;;;;;;18.92;41.73;101433.69;5124987;27;20087;-51
2022/04/21 09:28:38;;;;;;;2.83;2.08;;;;;;;18.93;41.90;101436.22;5107643;27;20098;-56
2022/04/21 09:31:06;;;;;;;2.40;1.63;;;;;;;18.93;41.64;101430.84;5124139;27;20062;-60
2022/04/21 09:33:40;;;;;;;3.72;1.98;;;;;;;18.97;41.53;101434.06;5123486;27;20027;-56
2022/04/21 09:36:06;;;;;;;3.03;2.05;;;;;;;18.99;41.45;101434.78;5123117;27;20026;-55
2022/04/21 09:38:33;;;;;;;3.95;2.38;;;;;;;19.03;41.22;101432.59;5124937;27;20568;-55
2022/04/21 09:41:06;;;;;;;4.35;2.22;;;;;;;19.05;41.05;101433.28;5144113;27;20047;-58
2022/04/21 09:43:37;;;;;;;3.88;2.13;;;;;;;19.03;41.23;101435.28;5124541;27;20049;-57
2022/04/21 09:46:20;;;;;;;3.95;2.00;;;;;;;19.06;41.07;101433.13;5142538;27;20068;-52
2022/04/21 09:48:48;;;;;;;3.33;1.80;;;;;;;19.06;41.45;101432.28;5125366;27;20023;-55
2022/04/21 09:51:21;;;;;;;2.65;1.98;;;;;;;18.94;41.51;101408.28;5121453;27;20038;-53
2022/04/21 09:53:51;;;;;;;3.17;2.20;;;;;;;19.05;41.27;101420.66;5121824;27;20035;-53
2022/04/21 09:56:16;;;;;;;2.70;1.75;;;;;;;19.03;41.53;101421.81;5140410;27;20431;-46
2022/04/21 09:58:43;;;;;;;2.78;1.45;;;;;;;19.02;41.49;101417.44;5118740;27;20083;-50
2022/04/21 10:01:09;;;;;;;2.35;1.48;;;;;;;19.03;41.51;101411.91;5139560;27;20045;-52
2022/04/21 10:03:34;;;;;;;1.90;1.40;;;;;;;19.03;41.82;101416.41;5141652;27;20499;-51
2022/04/21 10:06:01;;;;;;;2.08;1.33;;;;;;;19.03;41.66;101419.13;5107526;27;20051;-47
2022/04/21 10:08:28;;;;;;;2.08;1.60;;;;;;;19.04;41.72;101423.53;5123950;27;20027;-50
2022/04/21 10:10:54;;;;;;;1.63;1.30;;;;;;;18.94;41.70;101391.25;5139295;27;20026;-51
2022/04/21 10:13:19;;;;;;;1.85;1.25;;;;;;;19.04;42.07;101404.66;5142026;27;20019;-53
2022/04/21 10:15:45;;;;;;;2.58;1.73;;;;;;;18.96;41.80;101391.97;5143021;27;20511;-49
2022/04/21 10:18:15;;;;;;;1.48;1.20;;;;;;;19.06;41.86;101389.16;5123961;27;20480;-51
2022/04/21 10:20:41;;;;;;;2.40;1.85;;;;;;;19.06;42.11;101398.09;5124978;27;20078;-51
2022/04/21 10:23:11;;;;;;;2.83;1.67;;;;;;;19.07;41.86;101393.53;5143130;27;20110;-48
2022/04/21 10:25:38;;;;;;;2.00;1.33;;;;;;;19.09;41.98;101386.16;5124518;27;20097;-54
2022/04/21 10:28:50;;;;;;;2.65;1.60;;;;;;;19.10;41.94;101391.38;5140816;27;20027;-50
2022/04/21 10:31:33;;;;;;;3.00;1.40;;;;;;;19.09;42.02;101388.84;5137030;27;20031;-51
2022/04/21 10:34:00;;;;;;;2.22;1.40;;;;;;;19.10;41.88;101377.91;5107410;27;20024;-53
2022/04/21 10:36:53;;;;;;;1.70;1.58;;;;;;;19.12;42.09;101381.31;5142474;27;20036;-49
2022/04/21 10:39:18;;;;;;;1.75;1.33;;;;;;;19.10;42.04;101375.22;5121604;27;20058;-49
2022/04/21 10:41:43;;;;;;;2.05;1.27;;;;;;;19.12;42.29;101369.69;5141683;27;20027;-50
2022/04/21 10:44:16;;;;;;;1.70;1.20;;;;;;;19.13;42.12;101369.50;5123928;27;20080;-50
2022/04/21 10:46:42;;;;;;;2.15;1.40;;;;;;;19.12;42.07;101367.84;5121755;27;20023;-50
2022/04/21 10:49:09;;;;;;;1.85;1.25;;;;;;;19.14;42.00;101364.97;5105056;27;20083;-46
2022/04/21 10:57:31;;;;;;;1.35;1.20;;;;;;;19.14;42.57;101355.03;5098006;27;20062;-53
2022/04/21 11:00:08;;;;;;;1.52;1.10;;;;;;;19.16;42.39;101357.59;5123951;27;20031;-47
2022/04/21 11:02:41;;;;;;;2.10;1.20;;;;;;;19.16;42.25;101352.19;5139674;27;20023;-46
2022/04/21 11:05:21;;;;;;;2.20;1.30;;;;;;;19.18;42.64;101351.00;5123214;27;20064;-45
2022/04/21 11:08:10;;;;;;;1.33;1.00;;;;;;;19.18;42.37;101342.91;5139803;27;20031;-46
2022/04/21 11:10:41;;;;;;;1.48;1.02;;;;;;;19.19;42.47;101347.31;5109155;27;20094;-46
2022/04/21 11:13:10;;;;;;;1.58;1.15;;;;;;;19.19;42.73;101339.22;5123004;28;20046;-46
2022/04/21 11:15:49;;;;;;;1.42;1.10;;;;;;;19.21;42.38;101344.47;5103500;28;20031;-45
2022/04/21 11:18:21;;;;;;;2.28;1.30;;;;;;;19.20;42.80;101327.44;5121736;28;20468;-47
2022/04/21 11:20:48;;;;;;;1.30;0.98;;;;;;;19.21;42.70;101334.53;5123431;28;20115;-51
2022/04/21 11:23:24;;;;;;;1.65;1.10;;;;;;;19.23;42.75;101327.09;5141939;28;20031;-48
2022/04/21 11:25:50;;;;;;;1.77;1.02;;;;;;;19.22;42.79;101330.81;5142147;28;20035;-47
2022/04/21 11:28:23;;;;;;;2.63;1.20;;;;;;;19.24;42.58;101330.66;5105213;28;20030;-52
2022/04/21 11:30:55;;;;;;;1.25;0.85;;;;;;;19.23;42.28;101327.09;5141935;28;20056;-52
2022/04/21 11:33:21;;;;;;;1.33;0.85;;;;;;;19.25;42.36;101320.72;5105801;28;20023;-49
2022/04/21 11:35:48;;;;;;;1.20;1.00;;;;;;;19.17;42.27;101313.44;5106581;28;20027;-53
2022/04/21 11:38:13;;;;;;;1.35;0.93;;;;;;;19.27;42.46;101313.31;5140355;28;20056;-52
2022/04/21 11:40:44;;;;;;;1.45;1.10;;;;;;;19.28;42.43;101317.69;5123603;28;20047;-52
2022/04/21 11:43:15;;;;;;;1.02;0.90;;;;;;;19.29;42.58;101316.72;5106025;28;20023;-52
2022/04/21 11:45:44;;;;;;;1.10;1.00;;;;;;;19.30;42.19;101313.84;5123790;28;20027;-50
2022/04/21 11:48:14;;;;;;;1.40;1.00;;;;;;;19.22;42.36;101294.94;5122314;28;20033;-54
2022/04/21 11:50:44;;;;;;;1.60;1.10;;;;;;;19.33;42.47;101324.31;5123641;28;20068;-52
2022/04/21 11:53:20;;;;;;;1.08;0.85;;;;;;;19.31;42.74;101322.78;5123210;28;20023;-51
2022/04/21 11:55:49;;;;;;;1.80;1.00;;;;;;;19.30;42.46;101308.44;5111095;27;20043;-55
2022/04/21 11:58:30;;;;;;;;;;;;;;;19.29;42.83;101317.56;5144585;27;20396;-51
2022/04/21 12:06:38;;;;;;;1.27;1.05;;;;;;;19.30;42.84;101302.22;5141823;27;20713;-53
2022/04/21 12:09:05;;;;;;;1.25;0.88;;;;;;;19.34;42.42;101312.50;5110346;27;20570;-52
2022/04/21 12:11:30;;;;;;;1.33;0.90;;;;;;;19.35;42.17;101298.03;5125250;27;20575;-50
2022/04/21 12:13:56;;;;;;;1.80;1.05;;;;;;;19.39;42.25;101303.94;5126529;27;20066;-53